Time;durP1;ratioP1;P1;durP2;ratioP2;P2;SDS_P1;SDS_P2;PMS_P1;PMS_P2;Temp;Humidity;BMP_temperature;BMP_pressure;BME280_temperature;BME280_humidity;BME280_pressure;Samples;Min_cycle;Max_cycle;Signal;HPM_P1;HPM_P2
2022/01/10 00:00:58;;;;;;;32.38;13.35;;;;;;;0.78;100.00;100913.66;5057195;28;20044;-51
2022/01/10 00:03:24;;;;;;;33.25;13.57;;;;;;;0.84;100.00;100921.50;5073494;28;20116;-49
2022/01/10 00:05:50;;;;;;;36.80;13.60;;;;;;;0.91;100.00;100928.44;5110783;28;20031;-49
2022/01/10 00:08:16;;;;;;;36.38;13.02;;;;;;;1.00;100.00;100941.47;5115966;28;20042;-53
2022/01/10 00:10:42;;;;;;;33.40;13.25;;;;;;;0.70;100.00;100869.53;5116235;28;20461;-49
2022/01/10 00:13:07;;;;;;;36.42;13.23;;;;;;;1.22;100.00;100942.53;5116220;28;20486;-48
2022/01/10 00:15:33;;;;;;;33.75;12.63;;;;;;;1.32;100.00;100933.94;5116564;28;20042;-46
2022/01/10 00:17:58;;;;;;;36.35;11.88;;;;;;;1.55;100.00;100948.78;5097223;28;20035;-47
2022/01/10 00:20:23;;;;;;;40.38;12.68;;;;;;;1.66;100.00;100946.25;5115859;28;20038;-50
2022/01/10 00:22:50;;;;;;;40.17;12.05;;;;;;;1.37;100.00;100890.75;5113763;28;20024;-49
2022/01/10 00:25:19;;;;;;;36.97;11.57;;;;;;;1.18;100.00;100847.41;5114289;28;20034;-53
2022/01/10 00:27:45;;;;;;;41.75;12.18;;;;;;;1.76;100.00;100960.13;5115606;28;20024;-53
2022/01/10 00:30:12;;;;;;;33.15;11.98;;;;;;;1.34;100.00;100878.66;5115808;28;20498;-49
2022/01/10 00:32:38;;;;;;;37.20;11.85;;;;;;;1.28;100.00;100880.34;5097671;28;20425;-46
2022/01/10 00:35:06;;;;;;;34.03;12.18;;;;;;;1.71;100.00;100962.72;5097359;28;20386;-52
2022/01/10 00:37:33;;;;;;;32.63;11.07;;;;;;;1.67;100.00;100972.19;5093266;28;20034;-48
2022/01/10 00:39:58;;;;;;;37.50;11.98;;;;;;;1.63;100.00;100952.28;5109105;28;20048;-49
2022/01/10 00:42:23;;;;;;;40.25;11.95;;;;;;;1.09;100.00;100879.34;5115290;28;20051;-49
2022/01/10 00:44:53;;;;;;;37.58;12.18;;;;;;;1.47;100.00;100955.66;5098114;28;20027;-49
2022/01/10 00:47:19;;;;;;;31.38;11.70;;;;;;;1.13;100.00;100905.31;5115255;28;20055;-48
2022/01/10 00:49:45;;;;;;;27.23;11.38;;;;;;;1.15;100.00;100915.69;5114988;28;20066;-50
2022/01/10 00:52:11;;;;;;;37.30;12.88;;;;;;;1.06;100.00;100915.59;5115026;28;20110;-52
2022/01/10 00:54:37;;;;;;;45.58;12.00;;;;;;;1.52;100.00;100992.84;5114953;28;20461;-49
2022/01/10 00:57:03;;;;;;;35.25;11.93;;;;;;;1.55;100.00;100999.78;5114916;28;20387;-50
2022/01/10 00:59:29;;;;;;;30.58;11.05;;;;;;;1.12;100.00;100923.44;5076540;28;20058;-54
2022/01/10 01:01:55;;;;;;;31.67;11.52;;;;;;;1.57;100.00;100995.50;5107184;28;20040;-54
2022/01/10 01:04:20;;;;;;;31.90;11.73;;;;;;;1.78;100.00;101011.19;5114768;28;20031;-47
2022/01/10 01:06:45;;;;;;;33.95;11.57;;;;;;;1.57;100.00;100962.66;5096776;28;20032;-52
2022/01/10 01:09:15;;;;;;;36.60;12.02;;;;;;;1.95;100.00;101014.75;5114738;28;20039;-49
2022/01/10 01:14:37;;;;;;;31.85;10.85;;;;;;;1.47;100.00;100915.88;5114638;28;20478;-51
2022/01/10 01:17:26;;;;;;;35.58;12.50;;;;;;;2.14;100.00;101023.50;5099738;28;20371;-48
2022/01/10 01:25:10;;;;;;;29.98;11.45;;;;;;;2.16;100.00;101014.84;5098335;28;20093;-46
2022/01/10 01:27:36;;;;;;;35.00;12.68;;;;;;;1.82;100.00;100973.13;5114151;28;20031;-50
2022/01/10 01:30:01;;;;;;;37.15;12.05;;;;;;;2.13;100.00;101034.75;5093780;28;20039;-47
2022/01/10 01:32:27;;;;;;;33.80;11.43;;;;;;;2.12;100.00;101033.00;5100661;28;20467;-47
2022/01/10 01:34:56;;;;;;;28.95;12.60;;;;;;;2.12;100.00;101025.22;5114184;28;20053;-49
2022/01/10 01:37:22;;;;;;;36.30;11.70;;;;;;;1.97;100.00;101022.53;5114415;28;20027;-50
2022/01/10 01:39:47;;;;;;;37.88;12.48;;;;;;;1.94;100.00;101038.97;5101986;28;20055;-49
2022/01/10 01:42:33;;;;;;;32.28;12.27;;;;;;;1.54;100.00;100961.75;5101163;28;20035;-50
2022/01/10 01:44:59;;;;;;;34.25;13.80;;;;;;;2.10;100.00;101058.13;5098640;28;20038;-48
2022/01/10 01:47:24;;;;;;;39.92;13.63;;;;;;;1.65;100.00;100978.25;5087406;28;20032;-49
2022/01/10 01:49:50;;;;;;;35.45;12.52;;;;;;;1.70;100.00;100985.19;5105526;28;20039;-46
2022/01/10 01:52:15;;;;;;;32.17;12.80;;;;;;;2.15;100.00;101044.28;5100478;28;20032;-50
2022/01/10 01:54:41;;;;;;;41.60;13.48;;;;;;;1.81;100.00;100994.78;5113765;28;20046;-55
2022/01/10 01:57:06;;;;;;;37.65;13.98;;;;;;;2.29;100.00;101075.50;5098358;28;20036;-52
2022/01/10 01:59:35;;;;;;;33.45;13.38;;;;;;;1.78;100.00;100994.75;5106962;28;20081;-48
2022/01/10 02:02:00;;;;;;;40.22;14.10;;;;;;;2.09;100.00;101066.75;5113822;28;20035;-50
2022/01/10 02:04:25;;;;;;;36.47;13.43;;;;;;;1.70;100.00;101010.28;5098840;28;20032;-52
2022/01/10 02:06:51;;;;;;;34.83;14.35;;;;;;;2.14;100.00;101093.59;5111881;28;20085;-51
2022/01/10 02:09:16;;;;;;;38.47;15.38;;;;;;;2.20;100.00;101106.63;5099213;28;20092;-51
2022/01/10 02:11:42;;;;;;;38.03;14.77;;;;;;;2.18;100.00;101108.34;5113924;28;20076;-48
2022/01/10 02:14:08;;;;;;;31.88;14.82;;;;;;;2.17;100.00;101111.81;5106343;28;20035;-50
2022/01/10 02:16:42;;;;;;;32.67;14.57;;;;;;;2.15;100.00;101130.00;5113379;28;20035;-48
2022/01/10 02:19:07;;;;;;;36.65;15.10;;;;;;;1.99;100.00;101103.88;5110732;28;20111;-49
2022/01/10 02:21:33;;;;;;;44.95;16.23;;;;;;;1.98;100.00;101126.41;5113698;28;20119;-48
2022/01/10 02:23:59;;;;;;;33.83;16.05;;;;;;;1.89;100.00;101120.28;5113340;28;20032;-52
2022/01/10 02:26:24;;;;;;;37.17;15.02;;;;;;;1.78;100.00;101135.75;5113513;28;20031;-49
2022/01/10 02:28:50;;;;;;;37.47;16.92;;;;;;;1.89;100.00;101144.50;5112635;28;20060;-51
2022/01/10 02:31:15;;;;;;;44.85;18.38;;;;;;;1.42;100.00;101050.72;5105969;28;20510;-49
2022/01/10 02:33:41;;;;;;;40.97;18.45;;;;;;;2.03;100.00;101142.00;5103227;28;20059;-47
2022/01/10 02:38:45;;;;;;;50.60;19.38;;;;;;;2.15;100.00;101157.69;5112951;28;20040;-47
2022/01/10 02:41:11;;;;;;;40.35;18.55;;;;;;;2.16;100.00;101178.44;5106432;28;20044;-50
2022/01/10 02:43:36;;;;;;;45.25;19.00;;;;;;;2.14;100.00;101190.56;5102425;28;20035;-48
2022/01/10 02:46:01;;;;;;;49.17;20.42;;;;;;;1.72;100.00;101107.19;5098850;28;20107;-47
2022/01/10 02:48:27;;;;;;;44.10;18.88;;;;;;;1.74;100.00;101123.63;5109153;28;20036;-48
2022/01/10 02:50:52;;;;;;;49.25;19.85;;;;;;;2.01;100.00;101180.97;5096388;28;20412;-46
2022/01/10 02:53:18;;;;;;;42.63;19.30;;;;;;;1.46;100.00;101093.13;5104888;28;20042;-48
2022/01/10 02:55:43;;;;;;;42.40;19.38;;;;;;;1.91;100.00;101173.94;5103629;28;20597;-46
2022/01/10 02:58:08;;;;;;;43.17;19.00;;;;;;;1.87;100.00;101202.47;5098095;28;20588;-49
2022/01/10 03:00:34;;;;;;;48.60;19.42;;;;;;;1.79;100.00;101204.09;5109011;28;20024;-48
2022/01/10 03:03:06;;;;;;;40.40;19.23;;;;;;;1.64;100.00;101187.53;5095774;28;20039;-50
2022/01/10 03:05:31;;;;;;;53.60;21.73;;;;;;;1.74;100.00;101203.19;5103323;28;20036;-50
2022/01/10 03:07:58;;;;;;;46.33;21.67;;;;;;;1.74;100.00;101206.66;5104936;28;20046;-49
2022/01/10 03:10:23;;;;;;;42.92;21.35;;;;;;;1.77;100.00;101205.81;5096145;28;20115;-50
2022/01/10 03:12:49;;;;;;;51.13;23.20;;;;;;;1.73;100.00;101186.75;5109064;28;20546;-49
2022/01/10 03:15:14;;;;;;;45.92;22.83;;;;;;;1.87;100.00;101218.88;5099606;28;20040;-47
2022/01/10 03:17:40;;;;;;;49.42;24.05;;;;;;;1.83;100.00;101195.50;5100486;28;20024;-49
2022/01/10 03:20:08;;;;;;;47.13;24.95;;;;;;;1.62;100.00;101144.28;5106277;28;20036;-52
2022/01/10 03:22:34;;;;;;;50.58;24.33;;;;;;;1.92;100.00;101196.47;5095622;28;20088;-49
2022/01/10 03:25:00;;;;;;;50.88;24.77;;;;;;;1.72;100.00;101161.69;5107507;28;20110;-49
2022/01/10 03:27:25;;;;;;;52.42;25.80;;;;;;;2.19;100.00;101229.53;5099366;28;20038;-48
2022/01/10 03:29:51;;;;;;;59.83;26.88;;;;;;;2.27;100.00;101253.88;5100143;28;20032;-52
2022/01/10 03:32:17;;;;;;;47.97;26.58;;;;;;;2.26;100.00;101232.22;5096784;28;20039;-47
2022/01/10 03:34:42;;;;;;;55.08;27.08;;;;;;;2.34;100.00;101232.25;5107469;28;20032;-49
2022/01/10 03:37:08;;;;;;;50.22;26.25;;;;;;;2.49;100.00;101255.75;5098101;28;20070;-50
2022/01/10 03:39:35;;;;;;;57.22;26.80;;;;;;;2.13;100.00;101185.38;5104513;28;20074;-51
2022/01/10 03:42:00;;;;;;;53.60;27.55;;;;;;;2.21;100.00;101205.34;5114718;28;20371;-50
2022/01/10 03:44:25;;;;;;;52.97;26.75;;;;;;;1.97;100.00;101166.19;5098117;28;20028;-49
2022/01/10 03:46:51;;;;;;;51.28;25.95;;;;;;;2.44;100.00;101246.19;5098225;28;20475;-49
2022/01/10 03:49:16;;;;;;;50.47;27.33;;;;;;;2.56;100.00;101275.75;5116474;28;20466;-51
2022/01/10 03:51:42;;;;;;;49.75;27.25;;;;;;;2.00;100.00;101183.53;5098012;28;20088;-49
2022/01/10 03:54:07;;;;;;;51.63;26.98;;;;;;;2.20;100.00;101215.69;5116122;28;20457;-50
2022/01/10 03:56:33;;;;;;;50.90;26.45;;;;;;;2.59;100.00;101274.88;5116187;28;20039;-48
2022/01/10 03:58:58;;;;;;;54.35;27.38;;;;;;;2.52;100.00;101247.09;5116113;28;20082;-52
2022/01/10 04:01:24;;;;;;;57.78;27.17;;;;;;;2.35;100.00;101204.56;5116081;28;20080;-47
2022/01/10 04:03:49;;;;;;;49.28;26.00;;;;;;;2.30;100.00;101190.69;5116327;28;21269;-46
2022/01/10 04:06:15;;;;;;;51.70;28.02;;;;;;;2.81;100.00;101290.63;5115993;28;20092;-51
2022/01/10 04:08:40;;;;;;;49.90;26.75;;;;;;;2.72;100.00;101277.56;5115698;28;20036;-48
2022/01/10 04:11:06;;;;;;;48.13;28.45;;;;;;;2.86;100.00;101292.38;5116127;28;20512;-49
2022/01/10 04:13:32;;;;;;;43.72;25.95;;;;;;;2.39;100.00;101196.81;5115781;28;20084;-50
2022/01/10 04:15:57;;;;;;;50.47;29.08;;;;;;;2.56;100.00;101231.56;5115588;28;20503;-51
2022/01/10 04:18:23;;;;;;;54.47;27.05;;;;;;;2.94;100.00;101299.38;5097747;28;20059;-48
2022/01/10 04:20:48;;;;;;;56.17;28.23;;;;;;;2.45;100.00;101215.00;5097127;28;20034;-48
2022/01/10 04:23:15;;;;;;;52.65;27.20;;;;;;;2.96;100.00;101321.03;5097384;28;20027;-47
2022/01/10 04:25:41;;;;;;;48.70;27.95;;;;;;;2.84;100.00;101300.16;5115754;28;20027;-47
2022/01/10 04:28:06;;;;;;;56.50;28.35;;;;;;;2.97;100.00;101314.13;5097392;28;20067;-47
2022/01/10 04:30:32;;;;;;;60.47;28.17;;;;;;;2.98;100.00;101334.06;5097027;28;20160;-51
2022/01/10 04:32:59;;;;;;;60.25;30.27;;;;;;;2.89;100.00;101319.25;5103639;28;20480;-48
2022/01/10 04:35:26;;;;;;;55.15;29.13;;;;;;;2.88;100.00;101320.13;5115259;28;20482;-46
2022/01/10 04:37:51;;;;;;;52.47;29.08;;;;;;;2.46;100.00;101254.84;5115414;28;20031;-49
2022/01/10 04:40:17;;;;;;;49.10;29.05;;;;;;;2.58;100.00;101274.00;5115115;28;20448;-49
2022/01/10 04:42:43;;;;;;;56.47;29.60;;;;;;;3.04;100.00;101360.97;5096897;28;20032;-47
2022/01/10 04:45:09;;;;;;;49.60;27.95;;;;;;;3.05;100.00;101374.84;5096789;28;20118;-46
2022/01/10 04:47:35;;;;;;;46.70;28.05;;;;;;;2.88;100.00;101330.53;5097043;28;20084;-48
2022/01/10 04:52:27;;;;;;;43.13;26.67;;;;;;;3.06;100.00;101374.88;5114471;28;20039;-48
2022/01/10 04:54:52;;;;;;;57.38;29.05;;;;;;;3.07;100.00;101378.31;5115117;28;20479;-51
2022/01/10 04:57:17;;;;;;;47.45;27.23;;;;;;;3.03;100.00;101376.56;5114968;28;20092;-51
2022/01/10 04:59:43;;;;;;;53.10;27.48;;;;;;;3.00;100.00;101384.34;5114952;28;20035;-50
2022/01/10 05:02:10;;;;;;;53.78;27.45;;;;;;;2.52;100.00;101312.94;5096673;28;20034;-48
2022/01/10 05:04:35;;;;;;;47.63;27.00;;;;;;;2.62;100.00;101324.28;5114950;28;20035;-51
2022/01/10 05:07:00;;;;;;;49.05;30.13;;;;;;;2.47;100.00;101313.75;5114962;28;20024;-51
2022/01/10 05:09:26;;;;;;;46.28;27.80;;;;;;;2.98;100.00;101409.50;5096531;28;20750;-48
2022/01/10 05:11:51;;;;;;;45.10;27.35;;;;;;;2.93;100.00;101408.56;5096513;28;20108;-50
2022/01/10 05:14:16;;;;;;;50.70;28.92;;;;;;;2.55;100.00;101340.66;5114500;28;20042;-50
2022/01/10 05:16:43;;;;;;;50.72;29.38;;;;;;;2.93;100.00;101411.16;5114750;28;20054;-48
2022/01/10 05:19:09;;;;;;;49.97;30.65;;;;;;;2.40;100.00;101325.81;5114468;28;20059;-53
2022/01/10 05:21:36;;;;;;;45.95;29.83;;;;;;;2.77;100.00;101405.84;5096399;28;20028;-49
2022/01/10 05:24:01;;;;;;;51.63;29.45;;;;;;;2.78;100.00;101430.09;5115030;28;20119;-50
2022/01/10 05:26:27;;;;;;;46.92;29.02;;;;;;;2.43;100.00;101371.75;5096096;28;20147;-47
2022/01/10 05:28:54;;;;;;;54.22;30.20;;;;;;;1.78;100.00;101275.91;5096125;28;20558;-52
2022/01/10 05:31:20;;;;;;;48.17;30.20;;;;;;;2.63;100.00;101442.97;5114296;28;20359;-47
2022/01/10 05:33:45;;;;;;;52.13;30.55;;;;;;;2.60;100.00;101454.19;5096257;28;20081;-47
2022/01/10 05:36:11;;;;;;;54.50;31.55;;;;;;;2.61;100.00;101457.69;5114103;28;20538;-47
2022/01/10 05:38:36;;;;;;;51.08;31.85;;;;;;;2.59;100.00;101452.47;5114217;28;20111;-47
2022/01/10 05:41:01;;;;;;;53.70;31.63;;;;;;;2.17;100.00;101380.16;5092247;28;20060;-50
2022/01/10 05:43:27;;;;;;;54.00;32.00;;;;;;;2.52;100.00;101452.38;5092433;28;20032;-50
2022/01/10 05:45:52;;;;;;;56.17;33.42;;;;;;;2.53;100.00;101448.94;5093744;28;20032;-49
2022/01/10 05:48:25;;;;;;;59.88;31.85;;;;;;;2.21;100.00;101387.16;5093728;28;20032;-47
2022/01/10 05:50:50;;;;;;;51.40;32.35;;;;;;;2.22;100.00;101398.38;5077027;28;20036;-49
2022/01/10 05:53:16;;;;;;;51.75;33.53;;;;;;;2.69;100.00;101482.88;5093762;28;20058;-49
2022/01/10 05:55:41;;;;;;;61.50;32.78;;;;;;;2.69;100.00;101475.09;5092193;28;20028;-49
2022/01/10 05:58:07;;;;;;;51.03;32.85;;;;;;;2.22;100.00;101398.38;5093362;28;20032;-49
2022/01/10 06:00:34;;;;;;;51.42;32.00;;;;;;;2.36;100.00;101425.41;5093421;28;20548;-45
2022/01/10 06:02:59;;;;;;;57.42;32.65;;;;;;;2.35;100.00;101427.97;5091926;28;20130;-51
2022/01/10 06:05:30;;;;;;;56.60;33.58;;;;;;;2.73;100.00;101492.47;5092639;28;20459;-48
2022/01/10 06:07:56;;;;;;;56.65;33.55;;;;;;;2.54;100.00;101466.28;5093212;28;20491;-50
2022/01/10 06:10:21;;;;;;;54.65;34.28;;;;;;;2.70;100.00;101501.97;5091673;28;20069;-50
2022/01/10 06:12:47;;;;;;;50.38;32.42;;;;;;;2.65;100.00;101501.94;5076749;28;20386;-47
2022/01/10 06:15:12;;;;;;;60.50;33.35;;;;;;;2.22;100.00;101420.03;5093162;28;20130;-47
2022/01/10 06:17:37;;;;;;;57.83;33.88;;;;;;;2.30;100.00;101435.72;5093062;28;20086;-47
2022/01/10 06:20:03;;;;;;;60.50;34.40;;;;;;;2.32;100.00;101446.13;5093068;28;20040;-52
2022/01/10 06:22:29;;;;;;;62.22;35.60;;;;;;;2.42;100.00;101463.56;5092871;28;20123;-50
2022/01/10 06:24:55;;;;;;;64.10;34.67;;;;;;;2.34;100.00;101447.00;5092975;28;20118;-50
2022/01/10 06:27:20;;;;;;;66.53;35.70;;;;;;;2.82;100.00;101539.34;5091419;28;20028;-52
2022/01/10 06:29:46;;;;;;;58.80;34.20;;;;;;;2.51;100.00;101480.09;5092802;28;20028;-49
2022/01/10 06:32:11;;;;;;;49.22;32.15;;;;;;;2.87;100.00;101543.72;5091516;28;20032;-46
2022/01/10 06:34:36;;;;;;;57.88;34.28;;;;;;;2.86;100.00;101531.59;5092783;28;20070;-50
2022/01/10 06:37:02;;;;;;;55.70;34.38;;;;;;;2.56;100.00;101474.97;5091432;28;20499;-49
2022/01/10 06:39:28;;;;;;;60.97;34.35;;;;;;;3.07;100.00;101550.84;5091028;28;20044;-53
2022/01/10 06:41:53;;;;;;;60.10;34.50;;;;;;;2.90;100.00;101507.34;5092371;28;20043;-50
2022/01/10 06:44:19;;;;;;;55.45;33.40;;;;;;;2.82;100.00;101499.47;5092438;28;20036;-49
2022/01/10 06:46:44;;;;;;;58.25;34.47;;;;;;;2.68;100.00;101472.50;5092715;28;20147;-50
2022/01/10 06:49:09;;;;;;;56.42;34.65;;;;;;;3.16;100.00;101565.66;5092490;28;20036;-51
2022/01/10 06:51:35;;;;;;;59.40;35.15;;;;;;;3.14;100.00;101568.28;5091174;28;20489;-48
2022/01/10 06:54:00;;;;;;;62.85;35.20;;;;;;;3.12;100.00;101571.72;5092186;28;20126;-46
2022/01/10 06:56:25;;;;;;;59.60;35.30;;;;;;;2.71;100.00;101516.72;5092461;28;20093;-47
2022/01/10 06:58:51;;;;;;;46.53;32.25;;;;;;;3.11;100.00;101586.44;5092437;28;20031;-48
2022/01/10 07:01:19;;;;;;;56.85;32.92;;;;;;;3.07;100.00;101587.28;5092130;28;20042;-49
2022/01/10 07:03:45;;;;;;;56.83;34.15;;;;;;;3.11;100.00;101599.47;5092303;28;20028;-51
2022/01/10 07:06:10;;;;;;;63.60;36.55;;;;;;;3.00;100.00;101592.41;5092135;28;20043;-48
2022/01/10 07:08:36;;;;;;;60.42;36.10;;;;;;;2.55;100.00;101526.06;5092491;28;20035;-48
2022/01/10 07:11:01;;;;;;;62.53;34.92;;;;;;;3.02;100.00;101612.38;5092391;28;20035;-46
2022/01/10 07:13:27;;;;;;;55.42;35.15;;;;;;;3.15;100.00;101629.81;5091912;28;20036;-47
2022/01/10 07:15:52;;;;;;;54.65;36.75;;;;;;;3.17;100.00;101643.75;5091899;28;20077;-48
2022/01/10 07:18:18;;;;;;;59.78;36.00;;;;;;;3.18;100.00;101642.03;5091283;28;20040;-49
2022/01/10 07:20:43;;;;;;;58.30;36.55;;;;;;;2.73;100.00;101561.78;5091505;28;20093;-52
2022/01/10 07:23:08;;;;;;;57.88;36.20;;;;;;;3.20;100.00;101653.31;5091303;28;20114;-49
2022/01/10 07:25:35;;;;;;;66.95;37.20;;;;;;;2.79;100.00;101593.94;5091799;28;20032;-50
2022/01/10 07:28:00;;;;;;;60.88;36.35;;;;;;;3.21;100.00;101671.53;5090919;28;20032;-55
2022/01/10 07:30:26;;;;;;;51.55;34.92;;;;;;;3.07;100.00;101651.41;5092087;28;20113;-50
2022/01/10 07:32:52;;;;;;;65.53;36.72;;;;;;;3.22;100.00;101678.47;5079159;28;20471;-50
2022/01/10 07:35:17;;;;;;;55.88;36.45;;;;;;;2.75;100.00;101605.13;5082636;28;20078;-50
2022/01/10 07:37:43;;;;;;;50.22;34.35;;;;;;;2.97;100.00;101641.78;5071499;28;20028;-51
2022/01/10 07:40:09;;;;;;;59.05;37.35;;;;;;;3.25;100.00;101701.06;5070058;28;20083;-48
2022/01/10 07:42:34;;;;;;;57.50;37.47;;;;;;;3.22;100.00;101706.22;5071552;28;20387;-52
2022/01/10 07:45:00;;;;;;;68.40;38.42;;;;;;;3.29;100.00;101716.72;5070494;28;20494;-51
2022/01/10 07:47:25;;;;;;;67.88;40.85;;;;;;;3.31;100.00;101720.22;5072150;28;20458;-52
2022/01/10 07:49:53;;;;;;;70.97;39.90;;;;;;;3.31;100.00;101727.13;5072005;28;20484;-55
2022/01/10 07:52:19;;;;;;;68.93;39.05;;;;;;;2.91;100.00;101653.00;5070636;28;20067;-49
2022/01/10 07:54:45;;;;;;;65.93;39.42;;;;;;;3.31;100.00;101727.13;5071822;28;20068;-49
2022/01/10 07:57:10;;;;;;;60.45;39.45;;;;;;;2.91;100.00;101662.50;5070769;28;20040;-50
2022/01/10 07:59:35;;;;;;;59.70;39.00;;;;;;;3.31;100.00;101748.84;5072068;28;20032;-47
2022/01/10 08:02:01;;;;;;;65.32;39.28;;;;;;;3.24;100.00;101730.53;5072046;28;20131;-49
2022/01/10 08:04:26;;;;;;;61.35;40.28;;;;;;;2.78;100.00;101654.56;5071467;28;20033;-51
2022/01/10 08:06:51;;;;;;;61.22;40.67;;;;;;;2.89;100.00;101669.44;5070512;28;20036;-48
2022/01/10 08:09:17;;;;;;;70.88;42.47;;;;;;;3.39;100.00;101756.72;5071307;28;20081;-50
2022/01/10 08:11:43;;;;;;;67.03;41.75;;;;;;;2.95;100.00;101680.75;5070552;28;20376;-49
2022/01/10 08:14:08;;;;;;;69.07;42.10;;;;;;;3.41;100.00;101755.88;5071458;28;20040;-52
2022/01/10 08:16:34;;;;;;;63.08;40.72;;;;;;;3.03;100.00;101686.06;5071405;28;20112;-49
2022/01/10 08:18:59;;;;;;;59.00;41.78;;;;;;;3.50;100.00;101770.75;5070118;28;20533;-46
2022/01/10 08:21:24;;;;;;;66.35;41.00;;;;;;;3.06;100.00;101697.38;5071192;28;20470;-50
2022/01/10 08:23:50;;;;;;;59.22;41.35;;;;;;;3.57;100.00;101785.56;5070139;28;20120;-48
2022/01/10 08:26:16;;;;;;;59.95;40.40;;;;;;;3.11;100.00;101694.81;5071447;28;20047;-50
2022/01/10 08:28:42;;;;;;;63.72;42.95;;;;;;;3.54;100.00;101782.94;5073201;28;20178;-47
2022/01/10 08:31:09;;;;;;;67.63;42.47;;;;;;;3.67;100.00;101800.44;5073845;28;20111;-49
2022/01/10 08:33:36;;;;;;;64.07;42.90;;;;;;;3.21;100.00;101718.34;5071572;28;20033;-49
2022/01/10 08:36:01;;;;;;;60.13;42.60;;;;;;;3.40;100.00;101746.34;5055818;28;20405;-46
2022/01/10 08:38:26;;;;;;;59.90;41.78;;;;;;;3.29;100.00;101719.34;5071960;28;20104;-51
2022/01/10 08:40:52;;;;;;;64.47;42.50;;;;;;;3.85;100.00;101812.78;5089197;28;20087;-51
2022/01/10 08:43:17;;;;;;;65.90;42.55;;;;;;;3.70;100.00;101778.78;5094860;28;20122;-49
2022/01/10 08:45:44;;;;;;;62.55;42.75;;;;;;;3.92;100.00;101823.28;5095041;28;20032;-52
2022/01/10 08:48:10;;;;;;;62.75;41.38;;;;;;;3.96;100.00;101811.16;5077227;28;20028;-50
2022/01/10 08:50:36;;;;;;;56.38;41.22;;;;;;;4.04;100.00;101821.63;5075685;28;20644;-52
2022/01/10 08:53:06;;;;;;;58.40;40.90;;;;;;;3.98;100.00;101809.44;5094184;28;20036;-54
2022/01/10 08:55:31;;;;;;;53.17;39.88;;;;;;;4.11;100.00;101824.34;5094957;28;20038;-49
2022/01/10 08:57:57;;;;;;;61.47;40.03;;;;;;;4.01;100.00;101804.25;5094589;28;20131;-53
2022/01/10 09:00:22;;;;;;;51.28;38.35;;;;;;;3.86;100.00;101778.06;5094522;28;20547;-49
2022/01/10 09:02:48;;;;;;;52.88;38.42;;;;;;;4.22;100.00;101842.66;5094505;28;20118;-50
2022/01/10 09:05:13;;;;;;;56.40;37.92;;;;;;;3.96;100.00;101775.56;5094543;28;20040;-47
2022/01/10 09:07:38;;;;;;;56.42;38.20;;;;;;;4.34;100.00;101845.41;5076468;28;20040;-49
2022/01/10 09:10:05;;;;;;;57.58;36.88;;;;;;;3.93;100.00;101764.25;5076752;28;20162;-48
2022/01/10 09:12:31;;;;;;;52.70;36.10;;;;;;;3.97;100.00;101769.47;5076688;28;20032;-50
2022/01/10 09:14:56;;;;;;;50.72;36.90;;;;;;;4.37;100.00;101838.47;5094436;28;20032;-49
2022/01/10 09:17:22;;;;;;;49.85;35.35;;;;;;;4.09;100.00;101784.34;5094576;28;20028;-50
2022/01/10 09:19:47;;;;;;;52.03;34.22;;;;;;;4.58;100.00;101855.16;5094720;28;20472;-48
2022/01/10 09:22:13;;;;;;;49.90;34.50;;;;;;;4.62;100.00;101859.53;5094260;28;20136;-52
2022/01/10 09:24:38;;;;;;;44.53;31.92;;;;;;;4.69;100.00;101862.22;5094516;28;20095;-53
2022/01/10 09:27:04;;;;;;;46.03;31.23;;;;;;;4.25;100.00;101785.38;5094287;28;20407;-50
2022/01/10 09:29:29;;;;;;;52.35;31.15;;;;;;;4.78;100.00;101872.72;5094513;28;20434;-50
2022/01/10 09:31:55;;;;;;;40.17;30.60;;;;;;;4.80;100.00;101868.38;5094940;28;20032;-52
2022/01/10 09:34:20;;;;;;;45.88;30.30;;;;;;;4.41;100.00;101795.03;5094191;28;20036;-50
2022/01/10 09:36:46;;;;;;;40.63;29.00;;;;;;;4.92;100.00;101881.50;5092233;28;20486;-47
2022/01/10 09:39:13;;;;;;;44.83;26.95;;;;;;;4.98;100.00;101886.78;5091361;28;20085;-51
2022/01/10 09:41:39;;;;;;;40.50;26.80;;;;;;;4.64;100.00;101819.53;5091641;28;20151;-50
2022/01/10 09:44:06;;;;;;;46.58;27.38;;;;;;;5.06;100.00;101892.91;5093777;28;20064;-52
2022/01/10 09:46:32;;;;;;;39.97;27.38;;;;;;;5.05;100.00;101888.53;5093734;28;20043;-48
2022/01/10 09:49:00;;;;;;;39.38;25.65;;;;;;;4.69;100.00;101815.25;5092581;28;20364;-48
2022/01/10 09:51:27;;;;;;;37.53;25.55;;;;;;;5.31;100.00;101916.56;5091937;28;20032;-53
2022/01/10 09:53:56;;;;;;;36.65;25.10;;;;;;;5.34;100.00;101899.16;5058493;28;20137;-48
2022/01/10 09:56:22;;;;;;;36.63;26.00;;;;;;;5.35;100.00;101890.47;5094071;28;20028;-49
2022/01/10 09:58:47;;;;;;;37.10;25.00;;;;;;;5.59;100.00;101915.84;5094519;28;20054;-48
2022/01/10 10:01:16;;;;;;;35.60;24.20;;;;;;;5.23;100.00;101839.94;5093726;28;20477;-49
2022/01/10 10:03:49;;;;;;;36.53;24.45;;;;;;;5.60;100.00;101894.09;5059083;28;20395;-49
2022/01/10 10:06:16;;;;;;;33.50;22.55;;;;;;;5.57;100.00;101879.25;5093781;28;20039;-50
2022/01/10 10:08:41;;;;;;;30.50;22.42;;;;;;;5.58;100.00;101867.09;5075624;28;20070;-49
2022/01/10 10:11:08;;;;;;;35.08;23.02;;;;;;;5.75;100.00;101888.06;5093694;28;20036;-49
2022/01/10 10:13:44;;;;;;;30.40;20.95;;;;;;;6.22;100.00;101968.41;5075531;28;20036;-54
2022/01/10 10:16:17;;;;;;;32.75;21.35;;;;;;;6.27;100.00;101985.88;5075223;28;20135;-48
2022/01/10 10:18:43;;;;;;;32.38;20.50;;;;;;;6.32;100.00;101977.16;5075894;28;20494;-52
2022/01/10 10:21:13;;;;;;;28.95;20.23;;;;;;;5.89;100.00;101910.81;5093395;28;20036;-52
2022/01/10 10:23:41;;;;;;;30.80;20.30;;;;;;;6.36;100.00;102005.09;5075190;28;20468;-48
2022/01/10 10:26:07;;;;;;;29.95;18.85;;;;;;;6.35;100.00;102003.31;5093344;28;20087;-52
2022/01/10 10:28:35;;;;;;;29.92;18.27;;;;;;;6.32;100.00;102016.38;5093262;28;20047;-50
2022/01/10 10:31:02;;;;;;;30.05;18.90;;;;;;;6.24;100.00;101997.19;5058490;28;20465;-50
2022/01/10 10:33:27;;;;;;;27.70;17.63;;;;;;;6.34;100.00;102016.38;5041893;28;20498;-49
2022/01/10 10:36:07;;;;;;;27.02;16.98;;;;;;;6.27;100.00;102019.84;5093167;28;20097;-49
2022/01/10 10:38:33;;;;;;;30.65;17.80;;;;;;;6.12;100.00;102005.84;5093013;28;20028;-48
2022/01/10 10:41:01;;;;;;;28.90;16.95;;;;;;;6.10;100.00;102027.63;5091380;28;20564;-51
2022/01/10 10:43:30;;;;;;;30.30;17.75;;;;;;;5.73;100.00;101969.03;5073430;28;20477;-49
2022/01/10 10:45:59;;;;;;;26.67;17.67;;;;;;;5.52;100.00;101942.78;5091973;28;20032;-49
2022/01/10 10:48:25;;;;;;;26.45;16.65;;;;;;;5.57;100.00;101948.94;5092179;28;20032;-49
2022/01/10 10:50:52;;;;;;;22.63;18.10;;;;;;;5.91;100.00;102028.38;5091466;28;20115;-50
2022/01/10 10:53:18;;;;;;;27.20;18.25;;;;;;;5.82;100.00;102018.72;5092029;28;20072;-49
2022/01/10 10:55:45;;;;;;;31.38;18.98;;;;;;;5.88;100.00;102037.09;5091831;28;20092;-50
2022/01/10 10:58:12;;;;;;;24.98;17.45;;;;;;;5.98;100.00;102017.13;5073990;28;20140;-51
2022/01/10 11:00:37;;;;;;;27.17;15.98;;;;;;;5.82;100.00;101956.00;5074247;28;20046;-54
2022/01/10 11:03:04;;;;;;;29.58;16.48;;;;;;;6.20;100.00;102000.66;5091684;28;20036;-52
2022/01/10 11:05:30;;;;;;;30.88;16.85;;;;;;;6.13;100.00;101962.25;5073593;28;20035;-51
2022/01/10 11:07:56;;;;;;;25.67;15.63;;;;;;;6.82;100.00;102062.75;5073736;28;20225;-49
2022/01/10 11:10:23;;;;;;;25.20;16.25;;;;;;;6.89;100.00;102056.69;5091557;28;20032;-50
2022/01/10 11:12:53;;;;;;;24.63;14.93;;;;;;;7.05;100.00;102058.44;5091567;28;20028;-51
2022/01/10 11:15:18;;;;;;;25.00;14.68;;;;;;;7.13;100.00;102082.88;5073091;28;20118;-49
2022/01/10 11:17:44;;;;;;;23.77;15.25;;;;;;;7.29;100.00;102097.75;5073594;28;20535;-47